KDAWKIWI

Guest
Details From KDAW - SKYHAVEN
To KIWI - Wiscasset
Flight Number -
Tags generated
Created
Modified
Stats Distance 67 nm / 124 km
Max Altitude 5,300 ft / 1,615 m
Waypoints 3
Social Downloads 0
Likes 0
Share VATSIM

Download

Looking for another format? Having issues loading an existing format? Contact us
Advertisement - Login to hide

Notes

Basic altitude profile: - Ascent Rate: 2500ft/min - Ascent Speed: 250kts - Cruise Altitude: 35000ft - Cruise Speed: 420kts - Descent Rate: 1500ft/min - Descent Speed: 250kts Options: - Use NATs: yes - Use PACOTS: yes - Use low airways: yes - Use high airways: yes

Route

KDAW BOOTS KIWI

ID Type Via Altitude Latitude Longitude Leg Dist Tot Dist Heading (true) Name
O KDAW APT - 0 ft / 0 m 43.28406˚ -70.92926˚ - 0 nm - SKYHAVEN
BOOTS FIX - 5,300 ft / 1,615 m 43.72989˚ -70.18891˚ 41 nm 41 nm 50° / 51° -
O KIWI APT - 0 ft / 0 m 43.96128˚ -69.71252˚ 24 nm 66 nm 56° / 56° Wiscasset

Altitude Profile

Advertisement - Login to hide

KDAW

Details ICAO KDAW
Name SKYHAVEN
Region United States
Timezone America/New_York (UTC-5.0)
Stats Elevation 322 ft / 98 m (AMSL)
Location 43.284061° -70.929255°
Runways 1
Magnetic Variation 14.950° W

METAR

KDAW 122122Z AUTO 01007KT 5SM -FZRA BR OVC005 M03/M03 A2941 RMK AO2 I1004 T10281028 PNO $

Decode

TAF

Not found

Departure Runways

ID Width Length Bearing (true) Bearing (mag) Surface Threshold Offset Overrun Length
15 100 ft / 30 m 3,996 ft / 1,218 m 130.95° 145.90° Asphalt 0 ft / 0 m 0 ft / 0 m
33 100 ft / 30 m 3,996 ft / 1,218 m 310.96° 325.91° Asphalt 0 ft / 0 m 0 ft / 0 m

KIWI

Details ICAO KIWI
Name Wiscasset
Region United States
Timezone America/New_York (UTC-5.0)
Stats Elevation 74 ft / 23 m (AMSL)
Location 43.961279° -69.712516°
Runways 2
Magnetic Variation 15.603° W

METAR

KIWI 122123Z AUTO VRB04KT 10SM BKN005 OVC010 M01/M01 A2951 RMK AO2 FZRAE19 CIG 003V009 PRESFR P0001 I1001 T10061006

Decode

TAF

Not found

Destination Runways

ID Width Length Bearing (true) Bearing (mag) Surface Threshold Offset Overrun Length
25 75 ft / 23 m 3,394 ft / 1,034 m 231.62° 247.22° Asphalt 0 ft / 0 m 0 ft / 0 m
25R 49 ft / 15 m 2,107 ft / 642 m 231.31° 246.91° Grass 0 ft / 0 m 0 ft / 0 m
7 75 ft / 23 m 3,394 ft / 1,034 m 51.61° 67.21° Asphalt 0 ft / 0 m 0 ft / 0 m
7L 49 ft / 15 m 2,107 ft / 642 m 51.31° 66.91° Grass 0 ft / 0 m 0 ft / 0 m